createdAt,value
2023-05-09T00:01:59.756Z,101939.63
2023-05-09T00:04:26.244Z,101933.22
2023-05-09T00:06:52.629Z,101925.22
2023-05-09T00:09:19.076Z,101933.72
2023-05-09T00:11:45.561Z,101928.94
2023-05-09T00:14:14.849Z,101923.59
2023-05-09T00:16:41.342Z,101927.84
2023-05-09T00:19:07.779Z,101922.50
2023-05-09T00:21:34.249Z,101924.38
2023-05-09T00:24:01.089Z,101931.06
2023-05-09T00:26:27.775Z,101927.91
2023-05-09T00:28:54.189Z,101920.47
2023-05-09T00:31:21.048Z,101921.34
2023-05-09T00:33:47.464Z,101918.41
2023-05-09T00:36:13.836Z,101916.25
2023-05-09T00:38:40.230Z,101913.09
2023-05-09T00:41:06.634Z,101907.78
2023-05-09T00:43:33.093Z,101899.06
2023-05-09T00:45:59.538Z,101901.53
2023-05-09T00:48:26.153Z,101890.69
2023-05-09T00:50:53.141Z,101895.22
2023-05-09T00:53:20.700Z,101900.53
2023-05-09T00:55:47.274Z,101892.84
2023-05-09T00:58:13.950Z,101894.63
2023-05-09T01:00:40.665Z,101897.28
2023-05-09T01:03:07.555Z,101891.75
2023-05-09T01:05:46.121Z,101883.00
2023-05-09T01:08:36.419Z,101873.75
2023-05-09T01:11:45.998Z,101870.06
2023-05-09T01:14:23.152Z,101874.59
2023-05-09T01:17:08.980Z,101862.88
2023-05-09T01:19:57.440Z,101874.81
2023-05-09T01:22:32.029Z,101874.88
2023-05-09T01:25:21.720Z,101857.38
2023-05-09T01:28:11.316Z,101869.09
2023-05-09T01:30:38.125Z,101852.06
2023-05-09T01:33:07.340Z,101855.88
2023-05-09T01:35:36.378Z,101848.19
2023-05-09T01:38:06.647Z,101850.28
2023-05-09T01:40:33.690Z,101854.72
2023-05-09T01:43:04.051Z,101852.34
2023-05-09T01:45:31.457Z,101845.97
2023-05-09T01:47:58.679Z,101843.59
2023-05-09T01:50:25.315Z,101846.25
2023-05-09T01:52:53.604Z,101837.22
2023-05-09T01:55:21.569Z,101835.34
2023-05-09T01:57:48.764Z,101831.09
2023-05-09T02:00:15.429Z,101833.75
2023-05-09T02:02:42.155Z,101834.84
2023-05-09T02:05:09.830Z,101831.63
2023-05-09T02:07:36.892Z,101833.75
2023-05-09T02:10:04.841Z,101823.13
2023-05-09T02:12:31.308Z,101825.63
2023-05-09T02:14:57.806Z,101820.31
2023-05-09T02:17:24.313Z,101820.59
2023-05-09T02:19:50.790Z,101819.53
2023-05-09T02:22:17.298Z,101817.50
2023-05-09T02:24:45.111Z,101813.34
2023-05-09T02:27:12.207Z,101809.34
2023-05-09T02:29:49.091Z,101810.69
2023-05-09T02:32:17.964Z,101801.16
2023-05-09T02:34:45.348Z,101798.25
2023-05-09T02:37:12.423Z,101806.47
2023-05-09T02:39:38.854Z,101794.25
2023-05-09T02:42:07.903Z,101798.53
2023-05-09T02:44:34.680Z,101800.09
2023-05-09T02:47:02.781Z,101797.75
2023-05-09T02:49:32.465Z,101802.25
2023-05-09T02:51:59.424Z,101791.41
2023-05-09T02:54:25.891Z,101793.28
2023-05-09T02:56:52.625Z,101799.16
2023-05-09T02:59:20.110Z,101793.84
2023-05-09T03:01:46.895Z,101787.47
2023-05-09T03:04:13.468Z,101782.22
2023-05-09T03:06:39.849Z,101787.56
2023-05-09T03:09:07.256Z,101782.25
2023-05-09T03:11:36.574Z,101777.47
2023-05-09T03:14:03.730Z,101766.34
2023-05-09T03:16:30.284Z,101758.09
2023-05-09T03:18:57.171Z,101755.44
2023-05-09T03:21:23.592Z,101748.75
2023-05-09T03:23:50.050Z,101749.28
2023-05-09T03:26:16.409Z,101748.72
2023-05-09T03:28:42.800Z,101745.50
2023-05-09T03:31:09.550Z,101740.69
2023-05-09T03:33:35.982Z,101740.19
2023-05-09T03:36:02.430Z,101740.25
2023-05-09T03:38:28.811Z,101735.72
2023-05-09T03:40:55.339Z,101731.72
2023-05-09T03:43:21.769Z,101728.78
2023-05-09T03:45:48.149Z,101730.91
2023-05-09T03:48:14.589Z,101727.47
2023-05-09T03:50:40.986Z,101717.13
2023-05-09T03:53:07.423Z,101707.38
2023-05-09T03:55:33.878Z,101713.03
2023-05-09T03:58:00.330Z,101709.78
2023-05-09T04:00:26.728Z,101703.19
2023-05-09T04:02:53.650Z,101703.97
2023-05-09T04:05:20.300Z,101708.44
2023-05-09T04:07:46.921Z,101700.44
2023-05-09T04:10:13.347Z,101702.06
2023-05-09T04:12:39.822Z,101704.44
2023-05-09T04:15:06.961Z,101704.44
2023-05-09T04:17:33.477Z,101698.91
2023-05-09T04:19:59.904Z,101698.97
2023-05-09T04:22:26.313Z,101688.91
2023-05-09T04:24:52.810Z,101691.00
2023-05-09T04:27:19.480Z,101690.72
2023-05-09T04:29:45.943Z,101694.22
2023-05-09T04:32:12.393Z,101683.88
2023-05-09T04:34:38.806Z,101688.94
2023-05-09T04:37:05.539Z,101678.63
2023-05-09T04:39:32.038Z,101678.94
2023-05-09T04:41:58.496Z,101687.63
2023-05-09T04:44:24.920Z,101681.97
2023-05-09T04:46:51.399Z,101683.25
2023-05-09T04:49:17.891Z,101678.22
2023-05-09T04:51:44.323Z,101673.50
2023-05-09T04:54:10.930Z,101675.06
2023-05-09T04:56:37.302Z,101670.78
2023-05-09T04:59:03.678Z,101675.06
2023-05-09T05:01:30.881Z,101662.63
2023-05-09T05:03:57.397Z,101662.03
2023-05-09T05:06:23.827Z,101653.78
2023-05-09T05:08:50.201Z,101659.03
2023-05-09T05:11:17.908Z,101658.53
2023-05-09T05:13:44.658Z,101656.44
2023-05-09T05:16:11.132Z,101650.63
2023-05-09T05:18:37.557Z,101657.53
2023-05-09T05:21:03.938Z,101649.03
2023-05-09T05:23:30.377Z,101647.13
2023-05-09T05:25:56.918Z,101648.41
2023-05-09T05:28:23.478Z,101647.84
2023-05-09T05:30:49.915Z,101639.09
2023-05-09T05:33:16.363Z,101631.06
2023-05-09T05:35:42.757Z,101622.53
2023-05-09T05:38:09.203Z,101626.72
2023-05-09T05:40:35.590Z,101622.72
2023-05-09T05:43:02.082Z,101625.09
2023-05-09T05:45:30.245Z,101622.09
2023-05-09T05:47:56.858Z,101613.81
2023-05-09T05:50:23.268Z,101605.84
2023-05-09T05:52:49.717Z,101622.00
2023-05-09T05:55:16.525Z,101613.66
2023-05-09T05:57:44.180Z,101607.41
2023-05-09T06:00:11.538Z,101605.25
2023-05-09T06:02:38.152Z,101606.06
2023-05-09T06:05:05.950Z,101597.34
2023-05-09T06:07:32.355Z,101602.91
2023-05-09T06:09:58.763Z,101602.09
2023-05-09T06:12:27.339Z,101603.41
2023-05-09T06:14:54.502Z,101594.22
2023-05-09T06:17:21.146Z,101600.63
2023-05-09T06:19:47.539Z,101587.81
2023-05-09T06:22:13.987Z,101591.47
2023-05-09T06:24:40.424Z,101589.31
2023-05-09T06:27:06.855Z,101581.25
2023-05-09T06:29:33.291Z,101580.41
2023-05-09T06:31:59.853Z,101571.06
2023-05-09T06:34:26.344Z,101574.81
2023-05-09T06:36:52.809Z,101569.56
2023-05-09T06:39:19.549Z,101569.28
2023-05-09T06:41:46.012Z,101568.06
2023-05-09T06:44:12.366Z,101561.34
2023-05-09T06:46:38.886Z,101566.44
2023-05-09T06:49:06.056Z,101559.84
2023-05-09T06:51:32.614Z,101559.84
2023-05-09T06:53:59.014Z,101550.31
2023-05-09T06:56:26.442Z,101554.25
2023-05-09T06:58:52.923Z,101549.78
2023-05-09T07:01:19.305Z,101539.69
2023-05-09T07:03:47.514Z,101537.88
2023-05-09T07:06:13.931Z,101547.72
2023-05-09T07:08:40.491Z,101538.19
2023-05-09T07:11:06.878Z,101539.25
2023-05-09T07:13:33.317Z,101536.50
2023-05-09T07:15:59.719Z,101532.78
2023-05-09T07:18:26.155Z,101533.56
2023-05-09T07:20:52.571Z,101527.75
2023-05-09T07:23:19.025Z,101524.31
2023-05-09T07:25:45.482Z,101516.66
2023-05-09T07:28:12.713Z,101521.09
2023-05-09T07:30:39.233Z,101518.94
2023-05-09T07:33:06.727Z,101518.00
2023-05-09T07:35:33.268Z,101521.19
2023-05-09T07:37:59.645Z,101524.97
2023-05-09T07:40:26.085Z,101515.63
2023-05-09T07:42:54.934Z,101518.44
2023-05-09T07:45:23.658Z,101516.69
2023-05-09T07:47:50.628Z,101506.06
2023-05-09T07:50:17.392Z,101512.72
2023-05-09T07:52:43.925Z,101508.09
2023-05-09T07:55:12.251Z,101509.97
2023-05-09T07:57:39.835Z,101503.09
2023-05-09T08:00:07.882Z,101504.22
2023-05-09T08:02:34.392Z,101489.31
2023-05-09T08:05:00.945Z,101491.88
2023-05-09T08:07:27.393Z,101478.53
2023-05-09T08:09:53.837Z,101477.91
2023-05-09T08:12:20.243Z,101479.03
2023-05-09T08:14:46.905Z,101478.94
2023-05-09T08:17:13.332Z,101471.44
2023-05-09T08:19:39.806Z,101469.56
2023-05-09T08:22:06.246Z,101464.19
2023-05-09T08:24:32.724Z,101460.66
2023-05-09T08:26:59.878Z,101463.59
2023-05-09T08:29:26.334Z,101456.22
2023-05-09T08:31:52.939Z,101445.28
2023-05-09T08:34:20.772Z,101439.97
2023-05-09T08:36:47.175Z,101440.34
2023-05-09T08:39:13.583Z,101440.56
2023-05-09T08:41:40.094Z,101444.41
2023-05-09T08:44:06.823Z,101439.50
2023-05-09T08:46:37.143Z,101440.78
2023-05-09T08:49:07.136Z,101434.69
2023-05-09T08:51:34.440Z,101435.47
2023-05-09T08:54:01.406Z,101429.16
2023-05-09T08:56:29.022Z,101429.75
2023-05-09T08:58:55.642Z,101424.25
2023-05-09T09:01:23.497Z,101427.78
2023-05-09T09:03:50.326Z,101424.03
2023-05-09T09:06:17.504Z,101416.47
2023-05-09T09:08:44.214Z,101413.81
2023-05-09T09:11:13.787Z,101414.22
2023-05-09T09:13:41.738Z,101406.75
2023-05-09T09:16:16.642Z,101409.19
2023-05-09T09:18:43.432Z,101409.69
2023-05-09T09:21:10.610Z,101401.22
2023-05-09T09:23:39.346Z,101398.78
2023-05-09T09:26:05.754Z,101401.22
2023-05-09T09:28:32.497Z,101398.97
2023-05-09T09:30:58.878Z,101395.53
2023-05-09T09:33:26.990Z,101391.47
2023-05-09T09:35:54.806Z,101400.44
2023-05-09T09:38:22.783Z,101395.00
2023-05-09T09:40:52.118Z,101394.13
2023-05-09T09:43:18.736Z,101394.13
2023-05-09T09:45:49.042Z,101385.78
2023-05-09T09:48:15.769Z,101387.75
2023-05-09T09:50:42.461Z,101386.66
2023-05-09T09:53:08.904Z,101385.59
2023-05-09T09:55:35.747Z,101381.94
2023-05-09T09:58:02.296Z,101387.75
2023-05-09T10:00:28.799Z,101376.03
2023-05-09T10:02:56.348Z,101375.25
2023-05-09T10:05:28.404Z,101376.03
2023-05-09T10:08:05.021Z,101365.00
2023-05-09T10:10:33.722Z,101369.34
2023-05-09T10:13:07.437Z,101369.16
2023-05-09T10:15:49.353Z,101366.41
2023-05-09T10:18:23.223Z,101364.81
2023-05-09T10:20:50.168Z,101367.38
2023-05-09T10:23:18.137Z,101360.59
2023-05-09T10:25:47.560Z,101360.47
2023-05-09T10:28:18.926Z,101359.78
2023-05-09T10:31:03.845Z,101357.41
2023-05-09T10:33:44.085Z,101358.81
2023-05-09T10:36:10.977Z,101353.00
2023-05-09T10:38:37.400Z,101348.66
2023-05-09T10:41:04.126Z,101346.31
2023-05-09T10:43:33.704Z,101338.13
2023-05-09T10:46:01.640Z,101341.56
2023-05-09T10:48:28.590Z,101336.88
2023-05-09T10:50:55.649Z,101327.50
2023-05-09T10:53:24.385Z,101324.06
2023-05-09T10:55:59.039Z,101336.47
2023-05-09T10:58:40.773Z,101328.50
2023-05-09T11:01:07.484Z,101327.50
2023-05-09T11:03:54.737Z,101326.25
2023-05-09T11:06:49.308Z,101324.97
2023-05-09T11:09:35.807Z,101318.75
2023-05-09T11:12:04.865Z,101317.00
2023-05-09T11:14:37.261Z,101307.53
2023-05-09T11:17:04.561Z,101312.38
2023-05-09T11:19:36.884Z,101311.88
2023-05-09T11:22:13.920Z,101310.09
2023-05-09T11:24:44.688Z,101299.47
2023-05-09T11:27:24.553Z,101299.88
2023-05-09T11:29:59.179Z,101293.47
2023-05-09T11:32:32.277Z,101290.31
2023-05-09T11:35:15.735Z,101286.50
2023-05-09T11:37:55.021Z,101277.84
2023-05-09T11:40:22.333Z,101280.19
2023-05-09T11:42:51.038Z,101272.91
2023-05-09T11:45:17.789Z,101271.81
2023-05-09T11:47:45.804Z,101274.78
2023-05-09T11:50:13.626Z,101261.78
2023-05-09T11:52:40.818Z,101269.34
2023-05-09T11:55:12.807Z,101265.63
2023-05-09T11:57:41.291Z,101265.91
2023-05-09T12:00:09.295Z,101266.88
2023-05-09T12:02:36.538Z,101256.06
2023-05-09T12:05:10.378Z,101261.00
2023-05-09T12:07:38.028Z,101249.97
2023-05-09T12:10:06.850Z,101255.41
2023-05-09T12:12:37.491Z,101249.38
2023-05-09T12:15:08.225Z,101245.63
2023-05-09T12:17:35.505Z,101246.03
2023-05-09T12:20:04.280Z,101239.19
2023-05-09T12:22:30.982Z,101239.66
2023-05-09T12:24:59.600Z,101238.00
2023-05-09T12:27:28.262Z,101239.50
2023-05-09T12:29:55.442Z,101229.88
2023-05-09T12:32:21.994Z,101228.78
2023-05-09T12:34:48.937Z,101229.88
2023-05-09T12:37:17.307Z,101230.19
2023-05-09T12:40:07.024Z,101234.94
2023-05-09T12:42:35.409Z,101229.63
2023-05-09T12:45:03.030Z,101225.72
2023-05-09T12:47:31.001Z,101223.66
2023-05-09T12:50:01.409Z,101227.53
2023-05-09T12:52:46.930Z,101214.66
2023-05-09T12:55:20.985Z,101221.13
2023-05-09T12:57:58.303Z,101215.69
2023-05-09T13:00:24.991Z,101209.91
2023-05-09T13:02:52.758Z,101203.19
2023-05-09T13:05:21.486Z,101205.84
2023-05-09T13:07:50.140Z,101206.16
2023-05-09T13:10:23.780Z,101198.50
2023-05-09T13:12:51.456Z,101206.63
2023-05-09T13:15:22.688Z,101205.78
2023-05-09T13:17:52.692Z,101210.50
2023-05-09T13:20:19.558Z,101204.69
2023-05-09T13:22:46.192Z,101195.03
2023-05-09T13:25:12.921Z,101197.09
2023-05-09T13:27:39.407Z,101190.22
2023-05-09T13:30:07.732Z,101196.00
2023-05-09T13:32:34.692Z,101183.84
2023-05-09T13:35:01.196Z,101177.16
2023-05-09T13:37:28.058Z,101177.22
2023-05-09T13:39:55.352Z,101174.72
2023-05-09T13:42:21.870Z,101178.22
2023-05-09T13:44:48.283Z,101169.53
2023-05-09T13:47:14.663Z,101171.16
2023-05-09T13:49:41.093Z,101164.91
2023-05-09T13:52:08.260Z,101160.66
2023-05-09T13:54:35.139Z,101160.00
2023-05-09T13:57:03.510Z,101155.16
2023-05-09T13:59:32.976Z,101162.88
2023-05-09T14:02:00.394Z,101164.50
2023-05-09T14:04:27.843Z,101158.59
2023-05-09T14:06:58.705Z,101154.81
2023-05-09T14:09:25.237Z,101156.09
2023-05-09T14:11:52.825Z,101150.91
2023-05-09T14:14:20.866Z,101140.53
2023-05-09T14:16:47.793Z,101140.53
2023-05-09T14:19:17.560Z,101146.50
2023-05-09T14:21:44.745Z,101148.03
2023-05-09T14:24:15.088Z,101129.28
2023-05-09T14:26:42.354Z,101135.53
2023-05-09T14:29:08.799Z,101133.97
2023-05-09T14:31:35.253Z,101132.84
2023-05-09T14:34:01.736Z,101121.38
2023-05-09T14:36:28.795Z,101121.47
2023-05-09T14:38:55.235Z,101120.41
2023-05-09T14:41:22.218Z,101115.38
2023-05-09T14:43:48.916Z,101111.94
2023-05-09T14:46:15.555Z,101103.06
2023-05-09T14:48:42.196Z,101099.63
2023-05-09T14:51:08.661Z,101106.06
2023-05-09T14:53:39.703Z,101101.84
2023-05-09T14:56:06.870Z,101107.88
2023-05-09T14:58:36.551Z,101099.09
2023-05-09T15:01:04.175Z,101100.34
2023-05-09T15:03:30.720Z,101099.25
2023-05-09T15:05:58.611Z,101094.72
2023-05-09T15:08:25.431Z,101092.53
2023-05-09T15:10:51.846Z,101083.31
2023-05-09T15:13:18.327Z,101082.47
2023-05-09T15:15:44.848Z,101075.91
2023-05-09T15:18:13.247Z,101079.91
2023-05-09T15:20:39.836Z,101077.72
2023-05-09T15:23:07.806Z,101074.28
2023-05-09T15:25:34.508Z,101078.38
2023-05-09T15:28:01.246Z,101076.97
2023-05-09T15:30:27.770Z,101073.38
2023-05-09T15:32:54.212Z,101081.06
2023-05-09T15:35:20.774Z,101070.13
2023-05-09T15:37:47.190Z,101068.22
2023-05-09T15:40:13.904Z,101068.06
2023-05-09T15:42:40.980Z,101068.41
2023-05-09T15:45:08.126Z,101069.69
2023-05-09T15:47:34.613Z,101060.44
2023-05-09T15:50:01.039Z,101067.03
2023-05-09T15:52:27.835Z,101062.66
2023-05-09T15:54:55.253Z,101058.91
2023-05-09T15:57:22.077Z,101057.63
2023-05-09T15:59:48.517Z,101063.13
2023-05-09T16:02:15.129Z,101052.03
2023-05-09T16:04:42.481Z,101050.59
2023-05-09T16:07:08.916Z,101053.91
2023-05-09T16:09:35.377Z,101052.63
2023-05-09T16:12:01.903Z,101043.53
2023-05-09T16:14:28.361Z,101040.63
2023-05-09T16:16:54.846Z,101052.06
2023-05-09T16:19:21.705Z,101045.19
2023-05-09T16:21:48.398Z,101040.47
2023-05-09T16:24:14.840Z,101041.75
2023-05-09T16:26:41.318Z,101035.19
2023-05-09T16:29:07.775Z,101037.25
2023-05-09T16:31:35.638Z,101035.69
2023-05-09T16:34:02.919Z,101033.03
2023-05-09T16:36:29.897Z,101036.63
2023-05-09T16:38:56.401Z,101019.88
2023-05-09T16:41:22.888Z,101020.47
2023-05-09T16:43:49.344Z,101023.63
2023-05-09T16:46:16.168Z,101028.47
2023-05-09T16:48:42.657Z,101015.94
2023-05-09T16:51:09.188Z,101016.72
2023-05-09T16:53:36.280Z,101018.31
2023-05-09T16:56:03.908Z,101009.50
2023-05-09T16:58:30.435Z,101010.72
2023-05-09T17:00:57.036Z,101002.63
2023-05-09T17:03:23.861Z,101006.22
2023-05-09T17:05:51.139Z,101005.88
2023-05-09T17:08:17.508Z,101007.16
2023-05-09T17:10:43.934Z,101006.84
2023-05-09T17:13:10.447Z,101004.19
2023-05-09T17:15:38.343Z,101001.22
2023-05-09T17:18:05.085Z,101005.16
2023-05-09T17:20:31.750Z,101000.13
2023-05-09T17:22:58.178Z,100998.88
2023-05-09T17:25:24.553Z,101002.31
2023-05-09T17:27:50.955Z,100997.78
2023-05-09T17:30:18.803Z,101002.19
2023-05-09T17:32:46.734Z,101000.59
2023-05-09T17:35:13.792Z,101002.44
2023-05-09T17:37:40.416Z,101005.59
2023-05-09T17:40:07.814Z,100990.25
2023-05-09T17:42:34.294Z,100994.66
2023-05-09T17:45:00.844Z,100993.50
2023-05-09T17:47:28.617Z,100987.88
2023-05-09T17:49:55.229Z,100988.41
2023-05-09T17:52:22.111Z,100991.34
2023-05-09T17:54:48.698Z,100986.81
2023-05-09T17:57:15.134Z,100991.34
2023-05-09T17:59:41.743Z,100993.16
2023-05-09T18:02:08.240Z,100997.38
2023-05-09T18:04:34.768Z,100993.59
2023-05-09T18:07:01.509Z,100998.56
2023-05-09T18:09:28.112Z,101001.22
2023-05-09T18:11:54.532Z,100995.31
2023-05-09T18:14:20.911Z,100993.91
2023-05-09T18:16:47.322Z,100994.69
2023-05-09T18:19:13.749Z,100989.25
2023-05-09T18:21:40.484Z,100995.06
2023-05-09T18:24:09.058Z,101001.91
2023-05-09T18:26:35.477Z,100992.09
2023-05-09T18:29:02.066Z,100989.13
2023-05-09T18:31:28.511Z,100994.44
2023-05-09T18:33:54.985Z,100992.25
2023-05-09T18:36:22.687Z,100992.56
2023-05-09T18:38:49.124Z,100993.91
2023-05-09T18:41:16.949Z,100993.72
2023-05-09T18:43:46.460Z,100994.84
2023-05-09T18:46:17.177Z,100995.31
2023-05-09T18:48:45.095Z,100996.38
2023-05-09T18:51:11.895Z,100991.38
2023-05-09T18:53:38.814Z,100987.78
2023-05-09T18:56:05.302Z,100985.88
2023-05-09T18:58:32.394Z,100993.97
2023-05-09T19:00:58.953Z,100997.75
2023-05-09T19:03:25.472Z,100999.13
2023-05-09T19:05:51.867Z,100993.03
2023-05-09T19:08:18.262Z,100995.00
2023-05-09T19:10:44.872Z,100996.13
2023-05-09T19:13:12.799Z,101005.44
2023-05-09T19:15:40.515Z,100999.06
2023-05-09T19:18:07.098Z,100997.50
2023-05-09T19:20:33.539Z,100999.66
2023-05-09T19:22:59.976Z,101001.38
2023-05-09T19:25:26.577Z,100999.31
2023-05-09T19:27:54.065Z,101001.97
2023-05-09T19:30:20.827Z,101008.47
2023-05-09T19:32:47.332Z,101009.56
2023-05-09T19:35:13.876Z,101013.28
2023-05-09T19:37:40.744Z,101007.91
2023-05-09T19:40:07.592Z,101014.56
2023-05-09T19:42:34.322Z,101010.50
2023-05-09T19:45:00.967Z,101011.09
2023-05-09T19:47:27.804Z,101012.97
2023-05-09T19:49:54.218Z,101020.13
2023-05-09T19:52:21.054Z,101021.03
2023-05-09T19:54:47.455Z,101015.53
2023-05-09T19:57:13.869Z,101020.34
2023-05-09T19:59:40.237Z,101025.16
2023-05-09T20:02:06.923Z,101022.81
2023-05-09T20:04:36.871Z,101026.84
2023-05-09T20:07:04.414Z,101038.81
2023-05-09T20:09:32.744Z,101029.03
2023-05-09T20:12:01.517Z,101037.09
2023-05-09T20:14:27.896Z,101029.44
2023-05-09T20:16:56.715Z,101029.25
2023-05-09T20:19:23.271Z,101039.03
2023-05-09T20:21:49.999Z,101029.81
2023-05-09T20:24:19.097Z,101039.16
2023-05-09T20:26:45.529Z,101039.72
2023-05-09T20:29:11.937Z,101032.69
2023-05-09T20:31:38.445Z,101035.91
2023-05-09T20:34:04.846Z,101039.34
2023-05-09T20:36:31.306Z,101043.09
2023-05-09T20:38:57.799Z,101043.88
2023-05-09T20:41:24.302Z,101036.69
2023-05-09T20:43:50.813Z,101044.66
2023-05-09T20:46:17.403Z,101041.72
2023-05-09T20:48:44.272Z,101046.53
2023-05-09T20:51:10.744Z,101047.50
2023-05-09T20:53:37.712Z,101048.31
2023-05-09T20:56:04.917Z,101055.44
2023-05-09T20:58:32.719Z,101044.06
2023-05-09T21:00:59.424Z,101054.47
2023-05-09T21:03:26.016Z,101057.13
2023-05-09T21:05:52.482Z,101053.38
2023-05-09T21:08:19.234Z,101051.84
2023-05-09T21:10:45.642Z,101049.97
2023-05-09T21:13:12.119Z,101054.47
2023-05-09T21:15:38.579Z,101052.91
2023-05-09T21:18:05.065Z,101051.06
2023-05-09T21:20:31.501Z,101054.47
2023-05-09T21:22:57.888Z,101056.34
2023-05-09T21:25:24.394Z,101046.53
2023-05-09T21:27:50.772Z,101042.41
2023-05-09T21:30:17.380Z,101039.16
2023-05-09T21:32:43.991Z,101037.09
2023-05-09T21:35:12.650Z,101039.44
2023-05-09T21:37:39.314Z,101038.69
2023-05-09T21:40:06.491Z,101034.44
2023-05-09T21:42:32.995Z,101043.50
2023-05-09T21:44:59.369Z,101037.38
2023-05-09T21:47:26.058Z,101032.38
2023-05-09T21:49:52.769Z,101035.03
2023-05-09T21:52:19.387Z,101026.28
2023-05-09T21:54:45.779Z,101031.59
2023-05-09T21:57:12.151Z,101032.38
2023-05-09T21:59:38.512Z,101027.06
2023-05-09T22:02:05.267Z,101027.06
2023-05-09T22:04:31.686Z,101021.78
2023-05-09T22:06:58.077Z,101019.13
2023-05-09T22:09:24.503Z,101020.69
2023-05-09T22:11:52.720Z,101015.69
2023-05-09T22:14:19.071Z,101021.78
2023-05-09T22:16:45.650Z,101019.13
2023-05-09T22:19:12.106Z,101018.34
2023-05-09T22:21:38.550Z,101029.53
2023-05-09T22:24:05.479Z,101027.69
2023-05-09T22:26:33.026Z,101020.22
2023-05-09T22:28:59.492Z,101023.66
2023-05-09T22:31:26.186Z,101018.34
2023-05-09T22:33:52.765Z,101025.22
2023-05-09T22:36:19.660Z,101016.47
2023-05-09T22:38:52.238Z,101017.28
2023-05-09T22:41:18.867Z,101011.16
2023-05-09T22:43:45.251Z,101021.78
2023-05-09T22:46:11.935Z,101016.47
2023-05-09T22:48:38.371Z,101018.81
2023-05-09T22:51:04.845Z,101015.41
2023-05-09T22:53:31.277Z,101021.19
2023-05-09T22:55:57.813Z,101009.50
2023-05-09T22:58:24.218Z,101019.63
2023-05-09T23:00:50.842Z,101018.06
2023-05-09T23:03:18.476Z,101008.13
2023-05-09T23:05:44.920Z,101011.38
2023-05-09T23:08:11.339Z,101012.94
2023-05-09T23:10:37.879Z,101012.66
2023-05-09T23:13:04.765Z,101012.38
2023-05-09T23:15:31.214Z,101010.97
2023-05-09T23:17:57.629Z,101017.09
2023-05-09T23:20:24.054Z,101013.81
2023-05-09T23:22:50.484Z,101018.63
2023-05-09T23:25:16.865Z,101004.31
2023-05-09T23:27:44.494Z,101002.72
2023-05-09T23:30:11.275Z,101008.84
2023-05-09T23:32:37.761Z,101008.03
2023-05-09T23:35:04.742Z,101007.56
2023-05-09T23:37:31.198Z,101004.41
2023-05-09T23:39:58.168Z,101009.00
2023-05-09T23:42:24.603Z,101003.72
2023-05-09T23:44:51.234Z,101008.22
2023-05-09T23:47:17.580Z,101014.81
2023-05-09T23:49:43.937Z,101003.94
2023-05-09T23:52:10.287Z,101013.44
2023-05-09T23:54:37.289Z,101009.22
2023-05-09T23:57:04.037Z,100995.69
2023-05-09T23:59:30.443Z,100999.59
